WZZ6ZB EPGD-EGGW
Flight info
| Callsign | WZZ6ZB |
|---|---|
| Flight time | 2h 9m |
| Altitude | 34000 |
| Route | DEXIR T671 AGODU DCT BINKA DCT NOGRO M40 RINIS |
| Aircraft | A321/M-SDE3FGHIRWY/LB1 |
Departure
| Time | 2026-05-04 16:53 |
|---|---|
| Airport | Gdańsk Lech Wałęsa Airport (EPGD) |
Arrival
| Time | 2026-05-04 19:02 |
|---|---|
| Airport | London Luton Airport (EGGW) |
| Time | Latitude | Longitude | Altitude | Speed | Heading |
|---|---|---|---|---|---|
| 2026-05-04 16:31 | 54.38193 | 18.46318 | 460 ft | 0 kts | 23° |
| 2026-05-04 16:44 | 54.38190 | 18.46316 | 459 ft | 2 kts | 24° |
| 2026-05-04 16:45 | 54.38163 | 18.46278 | 459 ft | 3 kts | 70° |
| 2026-05-04 16:46 | 54.38162 | 18.46230 | 459 ft | 0 kts | 113° |
| 2026-05-04 16:48 | 54.38134 | 18.46344 | 457 ft | 14 kts | 113° |
| 2026-05-04 16:48 | 54.38094 | 18.46506 | 458 ft | 15 kts | 113° |
| 2026-05-04 16:49 | 54.38004 | 18.46594 | 459 ft | 9 kts | 200° |
| 2026-05-04 16:49 | 54.37904 | 18.46753 | 459 ft | 15 kts | 113° |
| 2026-05-04 16:50 | 54.37797 | 18.47183 | 459 ft | 25 kts | 113° |
| 2026-05-04 16:50 | 54.37658 | 18.47744 | 465 ft | 25 kts | 112° |
| 2026-05-04 16:51 | 54.37522 | 18.48293 | 475 ft | 28 kts | 113° |
| 2026-05-04 16:51 | 54.37443 | 18.48611 | 481 ft | 29 kts | 112° |
| 2026-05-04 16:51 | 54.37300 | 18.49191 | 487 ft | 17 kts | 112° |
| 2026-05-04 16:52 | 54.37145 | 18.49128 | 486 ft | 11 kts | 255° |
| 2026-05-04 16:52 | 54.37151 | 18.49062 | 492 ft | 1 kts | 291° |
| 2026-05-04 16:53 | 54.37416 | 18.48002 | 474 ft | 114 kts | 293° |
| 2026-05-04 16:53 | 54.38656 | 18.42905 | 1768 ft | 165 kts | 292° |
| 2026-05-04 16:54 | 54.39105 | 18.41016 | 2304 ft | 178 kts | 291° |
| 2026-05-04 16:55 | 54.41252 | 18.32359 | 3806 ft | 232 kts | 291° |
| 2026-05-04 16:55 | 54.41862 | 18.26973 | 4928 ft | 248 kts | 252° |
| 2026-05-04 16:56 | 54.40853 | 18.21188 | 6279 ft | 257 kts | 255° |
| 2026-05-04 16:56 | 54.39487 | 18.11099 | 8611 ft | 265 kts | 255° |
| 2026-05-04 16:57 | 54.39196 | 18.09018 | 9101 ft | 267 kts | 255° |
| 2026-05-04 16:57 | 54.38290 | 18.02760 | 10286 ft | 281 kts | 255° |
| 2026-05-04 16:58 | 54.36685 | 17.91969 | 10879 ft | 337 kts | 255° |
| 2026-05-04 16:58 | 54.36100 | 17.88049 | 11465 ft | 341 kts | 255° |
| 2026-05-04 16:59 | 54.34910 | 17.80113 | 12776 ft | 347 kts | 256° |
| 2026-05-04 17:00 | 54.32775 | 17.65995 | 14914 ft | 356 kts | 256° |
| 2026-05-04 17:00 | 54.31188 | 17.55577 | 16373 ft | 363 kts | 255° |
| 2026-05-04 17:01 | 54.29906 | 17.47158 | 17533 ft | 368 kts | 255° |
| 2026-05-04 17:01 | 54.28593 | 17.38621 | 18634 ft | 373 kts | 255° |
| 2026-05-04 17:02 | 54.27255 | 17.29962 | 19595 ft | 380 kts | 254° |
| 2026-05-04 17:02 | 54.25888 | 17.21222 | 20505 ft | 386 kts | 255° |
| 2026-05-04 17:03 | 54.25189 | 17.16756 | 20951 ft | 389 kts | 255° |
| 2026-05-04 17:03 | 54.24480 | 17.12209 | 21390 ft | 392 kts | 255° |
| 2026-05-04 17:03 | 54.23069 | 17.03192 | 22227 ft | 398 kts | 255° |
| 2026-05-04 17:04 | 54.21613 | 16.93986 | 23050 ft | 404 kts | 255° |
| 2026-05-04 17:04 | 54.20124 | 16.84668 | 23794 ft | 410 kts | 255° |
| 2026-05-04 17:05 | 54.18607 | 16.75221 | 24498 ft | 414 kts | 255° |
| 2026-05-04 17:05 | 54.17079 | 16.65690 | 25200 ft | 418 kts | 255° |
| 2026-05-04 17:06 | 54.15527 | 16.56069 | 25878 ft | 423 kts | 255° |
| 2026-05-04 17:06 | 54.14742 | 16.51230 | 26209 ft | 425 kts | 255° |
| 2026-05-04 17:07 | 54.13152 | 16.41480 | 26846 ft | 429 kts | 255° |
| 2026-05-04 17:07 | 54.12622 | 16.38236 | 27056 ft | 430 kts | 255° |
| 2026-05-04 17:07 | 54.11545 | 16.31655 | 27494 ft | 432 kts | 254° |
| 2026-05-04 17:07 | 54.10743 | 16.26778 | 27817 ft | 434 kts | 254° |
| 2026-05-04 17:08 | 54.09923 | 16.21812 | 28138 ft | 436 kts | 254° |
| 2026-05-04 17:08 | 54.08266 | 16.11839 | 28876 ft | 437 kts | 254° |
| 2026-05-04 17:08 | 54.07434 | 16.06863 | 29333 ft | 436 kts | 254° |
| 2026-05-04 17:09 | 54.06664 | 16.02263 | 29755 ft | 434 kts | 254° |
| 2026-05-04 17:09 | 54.05891 | 15.97649 | 29970 ft | 423 kts | 254° |
| 2026-05-04 17:09 | 54.05103 | 15.92951 | 30098 ft | 403 kts | 254° |
| 2026-05-04 17:10 | 54.03628 | 15.84207 | 30324 ft | 366 kts | 254° |
| 2026-05-04 17:10 | 54.01563 | 15.72054 | 30686 ft | 362 kts | 254° |
| 2026-05-04 17:11 | 54.00859 | 15.67899 | 30807 ft | 368 kts | 254° |
| 2026-05-04 17:11 | 54.00143 | 15.63688 | 30943 ft | 374 kts | 254° |
| 2026-05-04 17:11 | 53.98677 | 15.55122 | 31196 ft | 385 kts | 254° |
| 2026-05-04 17:12 | 53.97910 | 15.50676 | 31323 ft | 390 kts | 254° |
| 2026-05-04 17:12 | 53.96367 | 15.41787 | 31576 ft | 400 kts | 253° |
| 2026-05-04 17:13 | 53.94360 | 15.30261 | 31910 ft | 412 kts | 253° |
| 2026-05-04 17:14 | 53.91888 | 15.16087 | 32510 ft | 420 kts | 253° |
| 2026-05-04 17:14 | 53.91053 | 15.11337 | 32862 ft | 420 kts | 253° |
| 2026-05-04 17:14 | 53.89852 | 15.04517 | 33388 ft | 418 kts | 254° |
| 2026-05-04 17:15 | 53.89170 | 14.99614 | 33712 ft | 416 kts | 258° |
| 2026-05-04 17:15 | 53.88096 | 14.89993 | 33977 ft | 414 kts | 259° |
| 2026-05-04 17:16 | 53.87114 | 14.80406 | 33967 ft | 412 kts | 260° |
| 2026-05-04 17:17 | 53.85048 | 14.61330 | 33973 ft | 412 kts | 259° |
| 2026-05-04 17:18 | 53.82905 | 14.42299 | 33975 ft | 412 kts | 259° |
| 2026-05-04 17:19 | 53.80747 | 14.23254 | 33987 ft | 412 kts | 258° |
| 2026-05-04 17:20 | 53.78563 | 14.04292 | 33989 ft | 412 kts | 258° |
| 2026-05-04 17:20 | 53.76896 | 13.90042 | 33992 ft | 412 kts | 258° |
| 2026-05-04 17:21 | 53.74649 | 13.71070 | 33990 ft | 412 kts | 258° |
| 2026-05-04 17:22 | 53.73521 | 13.61592 | 33989 ft | 411 kts | 258° |
| 2026-05-04 17:23 | 53.71967 | 13.48664 | 33988 ft | 410 kts | 258° |
| 2026-05-04 17:24 | 53.70240 | 13.34538 | 33985 ft | 410 kts | 258° |
| 2026-05-04 17:25 | 53.67925 | 13.15715 | 33987 ft | 409 kts | 258° |
| 2026-05-04 17:26 | 53.65643 | 12.97473 | 33983 ft | 422 kts | 257° |
| 2026-05-04 17:26 | 53.63777 | 12.82696 | 33966 ft | 436 kts | 257° |
| 2026-05-04 17:27 | 53.62526 | 12.72868 | 33966 ft | 415 kts | 257° |
| 2026-05-04 17:28 | 53.60117 | 12.54192 | 33977 ft | 406 kts | 257° |
| 2026-05-04 17:29 | 53.56473 | 12.26383 | 33981 ft | 406 kts | 257° |
| 2026-05-04 17:31 | 53.53391 | 12.03302 | 33988 ft | 406 kts | 257° |
| 2026-05-04 17:32 | 53.50598 | 11.82640 | 34000 ft | 405 kts | 257° |
| 2026-05-04 17:33 | 53.48660 | 11.68496 | 33968 ft | 423 kts | 256° |
| 2026-05-04 17:33 | 53.47990 | 11.63655 | 33973 ft | 428 kts | 256° |
| 2026-05-04 17:34 | 53.45973 | 11.49063 | 33965 ft | 413 kts | 256° |
| 2026-05-04 17:34 | 53.45330 | 11.44416 | 33972 ft | 407 kts | 256° |
| 2026-05-04 17:35 | 53.42096 | 11.21497 | 33963 ft | 403 kts | 256° |
| 2026-05-04 17:36 | 53.40806 | 11.12425 | 33970 ft | 403 kts | 256° |
| 2026-05-04 17:36 | 53.39495 | 11.03292 | 33980 ft | 403 kts | 256° |
| 2026-05-04 17:37 | 53.38182 | 10.94157 | 33984 ft | 403 kts | 256° |
| 2026-05-04 17:37 | 53.36861 | 10.85032 | 33990 ft | 403 kts | 255° |
| 2026-05-04 17:38 | 53.35533 | 10.75908 | 33992 ft | 403 kts | 255° |
| 2026-05-04 17:38 | 53.34199 | 10.66793 | 34001 ft | 403 kts | 255° |
| 2026-05-04 17:39 | 53.32192 | 10.53211 | 34001 ft | 403 kts | 255° |
| 2026-05-04 17:39 | 53.30837 | 10.44122 | 34000 ft | 402 kts | 255° |
| 2026-05-04 17:40 | 53.29479 | 10.35058 | 34006 ft | 402 kts | 255° |
| 2026-05-04 17:40 | 53.28118 | 10.26021 | 33987 ft | 397 kts | 256° |
| 2026-05-04 17:41 | 53.26782 | 10.17193 | 33971 ft | 390 kts | 255° |
| 2026-05-04 17:41 | 53.25445 | 10.08419 | 33968 ft | 391 kts | 255° |
| 2026-05-04 17:42 | 53.24098 | 9.99619 | 33977 ft | 392 kts | 255° |
| 2026-05-04 17:42 | 53.22743 | 9.90796 | 33990 ft | 392 kts | 255° |
| 2026-05-04 17:43 | 53.21380 | 9.81982 | 33994 ft | 393 kts | 255° |
| 2026-05-04 17:43 | 53.20006 | 9.73155 | 33994 ft | 393 kts | 255° |
| 2026-05-04 17:44 | 53.18630 | 9.64339 | 33992 ft | 393 kts | 255° |
| 2026-05-04 17:44 | 53.17242 | 9.55514 | 33996 ft | 393 kts | 254° |
| 2026-05-04 17:45 | 53.15847 | 9.46708 | 33997 ft | 393 kts | 254° |
| 2026-05-04 17:45 | 53.14459 | 9.37947 | 33999 ft | 393 kts | 254° |
| 2026-05-04 17:46 | 53.13057 | 9.29142 | 33997 ft | 393 kts | 254° |
| 2026-05-04 17:46 | 53.11644 | 9.20343 | 33998 ft | 394 kts | 254° |
| 2026-05-04 17:47 | 53.10224 | 9.11542 | 34000 ft | 394 kts | 253° |
| 2026-05-04 17:47 | 53.08798 | 9.02755 | 34000 ft | 394 kts | 253° |
| 2026-05-04 17:48 | 53.07360 | 8.93969 | 33996 ft | 394 kts | 253° |
| 2026-05-04 17:48 | 53.05925 | 8.85183 | 33994 ft | 394 kts | 253° |
| 2026-05-04 17:49 | 53.04487 | 8.76396 | 33994 ft | 394 kts | 253° |
| 2026-05-04 17:49 | 53.03028 | 8.67613 | 33992 ft | 394 kts | 253° |
| 2026-05-04 17:50 | 53.01571 | 8.58899 | 33996 ft | 395 kts | 253° |
| 2026-05-04 17:50 | 53.00338 | 8.51539 | 33999 ft | 395 kts | 253° |
| 2026-05-04 17:51 | 53.00166 | 8.50511 | 33995 ft | 395 kts | 253° |
| 2026-05-04 17:52 | 52.99332 | 8.45796 | 34005 ft | 382 kts | 252° |
| 2026-05-04 17:52 | 52.98253 | 8.39484 | 33984 ft | 385 kts | 253° |
| 2026-05-04 17:53 | 52.97235 | 8.33301 | 33976 ft | 385 kts | 253° |
| 2026-05-04 17:53 | 52.96548 | 8.29103 | 33978 ft | 370 kts | 253° |
| 2026-05-04 17:53 | 52.95880 | 8.25073 | 33981 ft | 355 kts | 252° |
| 2026-05-04 17:54 | 52.94810 | 8.18742 | 33979 ft | 331 kts | 252° |
| 2026-05-04 17:54 | 52.93367 | 8.10372 | 33989 ft | 330 kts | 251° |
| 2026-05-04 17:55 | 52.92402 | 8.04787 | 33987 ft | 339 kts | 251° |
| 2026-05-04 17:55 | 52.91471 | 7.99374 | 33986 ft | 350 kts | 251° |
| 2026-05-04 17:56 | 52.91350 | 7.98678 | 33984 ft | 351 kts | 251° |
| 2026-05-04 17:56 | 52.90110 | 7.91506 | 33989 ft | 366 kts | 251° |
| 2026-05-04 17:57 | 52.88856 | 7.84271 | 33987 ft | 379 kts | 251° |
| 2026-05-04 17:57 | 52.88606 | 7.82829 | 33985 ft | 381 kts | 252° |
| 2026-05-04 17:58 | 52.87139 | 7.74234 | 33983 ft | 393 kts | 251° |
| 2026-05-04 17:58 | 52.85593 | 7.65535 | 33979 ft | 395 kts | 251° |
| 2026-05-04 17:59 | 52.84204 | 7.57765 | 33980 ft | 396 kts | 251° |
| 2026-05-04 18:00 | 52.82630 | 7.48917 | 33975 ft | 396 kts | 251° |
| 2026-05-04 18:00 | 52.82494 | 7.48150 | 33981 ft | 396 kts | 251° |
| 2026-05-04 18:01 | 52.81617 | 7.43129 | 33974 ft | 396 kts | 251° |
| 2026-05-04 18:01 | 52.80064 | 7.34388 | 33975 ft | 397 kts | 251° |
| 2026-05-04 18:02 | 52.77698 | 7.21284 | 33976 ft | 397 kts | 250° |
| 2026-05-04 18:02 | 52.76108 | 7.12538 | 33983 ft | 398 kts | 250° |
| 2026-05-04 18:03 | 52.74518 | 7.03783 | 33986 ft | 398 kts | 250° |
| 2026-05-04 18:03 | 52.72929 | 6.95026 | 33994 ft | 399 kts | 250° |
| 2026-05-04 18:04 | 52.71324 | 6.86275 | 33992 ft | 399 kts | 250° |
| 2026-05-04 18:05 | 52.68903 | 6.73151 | 34005 ft | 399 kts | 250° |
| 2026-05-04 18:05 | 52.68100 | 6.68823 | 34012 ft | 399 kts | 250° |
| 2026-05-04 18:06 | 52.65661 | 6.55723 | 34002 ft | 399 kts | 250° |
| 2026-05-04 18:06 | 52.64231 | 6.48100 | 34004 ft | 400 kts | 250° |
| 2026-05-04 18:08 | 52.63547 | 6.44480 | 33997 ft | 400 kts | 249° |
| 2026-05-04 18:08 | 52.62981 | 6.41379 | 33990 ft | 400 kts | 250° |
| 2026-05-04 18:09 | 52.61050 | 6.31123 | 33970 ft | 397 kts | 249° |
| 2026-05-04 18:10 | 52.59387 | 6.22428 | 33973 ft | 400 kts | 249° |
| 2026-05-04 18:10 | 52.57996 | 6.15164 | 33966 ft | 401 kts | 249° |
| 2026-05-04 18:11 | 52.57026 | 6.10100 | 33970 ft | 402 kts | 249° |
| 2026-05-04 18:14 | 52.55192 | 6.00556 | 33967 ft | 403 kts | 249° |
| 2026-05-04 18:14 | 52.53494 | 5.91749 | 33970 ft | 404 kts | 249° |
| 2026-05-04 18:15 | 52.50076 | 5.74121 | 33973 ft | 406 kts | 249° |
| 2026-05-04 18:16 | 52.48350 | 5.65283 | 33973 ft | 407 kts | 249° |
| 2026-05-04 18:16 | 52.46615 | 5.56456 | 33976 ft | 407 kts | 249° |
| 2026-05-04 18:17 | 52.43996 | 5.43204 | 33978 ft | 408 kts | 249° |
| 2026-05-04 18:17 | 52.42459 | 5.35473 | 33968 ft | 396 kts | 249° |
| 2026-05-04 18:18 | 52.41703 | 5.31657 | 33972 ft | 389 kts | 249° |
| 2026-05-04 18:18 | 52.39985 | 5.23056 | 33985 ft | 405 kts | 249° |
| 2026-05-04 18:19 | 52.37337 | 5.09868 | 34000 ft | 410 kts | 249° |
| 2026-05-04 18:19 | 52.35546 | 5.01012 | 34000 ft | 411 kts | 249° |
| 2026-05-04 18:20 | 52.33737 | 4.92145 | 34002 ft | 411 kts | 249° |
| 2026-05-04 18:20 | 52.32479 | 4.85977 | 34004 ft | 411 kts | 249° |
| 2026-05-04 18:21 | 52.31425 | 4.80785 | 34004 ft | 419 kts | 249° |
| 2026-05-04 18:21 | 52.29572 | 4.71729 | 34029 ft | 419 kts | 249° |
| 2026-05-04 18:22 | 52.27722 | 4.62724 | 34033 ft | 417 kts | 249° |
| 2026-05-04 18:22 | 52.25870 | 4.53767 | 34031 ft | 416 kts | 249° |
| 2026-05-04 18:23 | 52.24019 | 4.44895 | 34027 ft | 415 kts | 248° |
| 2026-05-04 18:23 | 52.22153 | 4.35980 | 34023 ft | 415 kts | 248° |
| 2026-05-04 18:24 | 52.20284 | 4.27083 | 34012 ft | 415 kts | 248° |
| 2026-05-04 18:24 | 52.18405 | 4.18183 | 34004 ft | 415 kts | 248° |
| 2026-05-04 18:25 | 52.16525 | 4.09273 | 34006 ft | 416 kts | 248° |
| 2026-05-04 18:25 | 52.14641 | 4.00373 | 33996 ft | 416 kts | 248° |
| 2026-05-04 18:26 | 52.12736 | 3.91461 | 34002 ft | 417 kts | 248° |
| 2026-05-04 18:26 | 52.10826 | 3.82547 | 34008 ft | 418 kts | 248° |
| 2026-05-04 18:27 | 52.08902 | 3.73620 | 34013 ft | 418 kts | 248° |
| 2026-05-04 18:27 | 52.06969 | 3.64700 | 34015 ft | 419 kts | 248° |
| 2026-05-04 18:28 | 52.05030 | 3.55772 | 34018 ft | 419 kts | 248° |
| 2026-05-04 18:28 | 52.03102 | 3.46915 | 34025 ft | 419 kts | 248° |
| 2026-05-04 18:29 | 52.01152 | 3.37993 | 34028 ft | 419 kts | 248° |
| 2026-05-04 18:29 | 51.99188 | 3.29084 | 34038 ft | 420 kts | 248° |
| 2026-05-04 18:30 | 51.96484 | 3.15581 | 34037 ft | 423 kts | 258° |
| 2026-05-04 18:31 | 51.95845 | 3.06025 | 34016 ft | 426 kts | 261° |
| 2026-05-04 18:31 | 51.95229 | 2.96489 | 34013 ft | 427 kts | 261° |
| 2026-05-04 18:32 | 51.94585 | 2.86889 | 33151 ft | 433 kts | 261° |
| 2026-05-04 18:32 | 51.94252 | 2.81979 | 32005 ft | 443 kts | 261° |
| 2026-05-04 18:32 | 51.93911 | 2.76991 | 30956 ft | 446 kts | 261° |
| 2026-05-04 18:32 | 51.93569 | 2.71999 | 29123 ft | 447 kts | 261° |
| 2026-05-04 18:33 | 51.93229 | 2.67050 | 27401 ft | 447 kts | 262° |
| 2026-05-04 18:33 | 51.92893 | 2.62087 | 25968 ft | 440 kts | 262° |
| 2026-05-04 18:33 | 51.92563 | 2.57212 | 24860 ft | 427 kts | 262° |
| 2026-05-04 18:33 | 51.92250 | 2.52589 | 24497 ft | 398 kts | 262° |
| 2026-05-04 18:34 | 51.91955 | 2.48250 | 23983 ft | 378 kts | 262° |
| 2026-05-04 18:34 | 51.91667 | 2.44072 | 23451 ft | 373 kts | 262° |
| 2026-05-04 18:34 | 51.91370 | 2.39865 | 22896 ft | 377 kts | 262° |
| 2026-05-04 18:34 | 51.91069 | 2.35653 | 22400 ft | 375 kts | 262° |
| 2026-05-04 18:35 | 51.90782 | 2.31477 | 21904 ft | 373 kts | 263° |
| 2026-05-04 18:35 | 51.90595 | 2.27256 | 21548 ft | 383 kts | 265° |
| 2026-05-04 18:35 | 51.90485 | 2.22897 | 21145 ft | 390 kts | 267° |
| 2026-05-04 18:35 | 51.90415 | 2.18501 | 20743 ft | 391 kts | 267° |
| 2026-05-04 18:36 | 51.90362 | 2.14862 | 20409 ft | 389 kts | 267° |
| 2026-05-04 18:36 | 51.90343 | 2.13527 | 20310 ft | 388 kts | 268° |
| 2026-05-04 18:36 | 51.90331 | 2.09042 | 19874 ft | 414 kts | 267° |
| 2026-05-04 18:37 | 51.90244 | 2.04221 | 19394 ft | 441 kts | 266° |
| 2026-05-04 18:37 | 51.90108 | 1.99141 | 19189 ft | 454 kts | 266° |
| 2026-05-04 18:37 | 51.90040 | 1.94261 | 19535 ft | 412 kts | 271° |
| 2026-05-04 18:37 | 51.90433 | 1.89791 | 18571 ft | 397 kts | 284° |
| 2026-05-04 18:38 | 51.91486 | 1.85687 | 17337 ft | 394 kts | 300° |
| 2026-05-04 18:38 | 51.93082 | 1.82230 | 16956 ft | 376 kts | 310° |
| 2026-05-04 18:38 | 51.94803 | 1.79022 | 16695 ft | 377 kts | 309° |
| 2026-05-04 18:38 | 51.96465 | 1.75812 | 16436 ft | 376 kts | 308° |
| 2026-05-04 18:39 | 51.98148 | 1.72504 | 16179 ft | 374 kts | 308° |
| 2026-05-04 18:39 | 51.99774 | 1.69295 | 15934 ft | 372 kts | 308° |
| 2026-05-04 18:39 | 52.01417 | 1.66060 | 15685 ft | 371 kts | 308° |
| 2026-05-04 18:39 | 52.03058 | 1.62843 | 15435 ft | 369 kts | 308° |
| 2026-05-04 18:40 | 52.04700 | 1.59635 | 15198 ft | 370 kts | 308° |
| 2026-05-04 18:40 | 52.06339 | 1.56438 | 14943 ft | 366 kts | 308° |
| 2026-05-04 18:40 | 52.07967 | 1.53269 | 14699 ft | 364 kts | 308° |
| 2026-05-04 18:40 | 52.09587 | 1.50113 | 14454 ft | 362 kts | 308° |
| 2026-05-04 18:41 | 52.11193 | 1.46972 | 14217 ft | 361 kts | 308° |
| 2026-05-04 18:41 | 52.12792 | 1.43843 | 14037 ft | 359 kts | 308° |
| 2026-05-04 18:41 | 52.14361 | 1.40692 | 14036 ft | 358 kts | 304° |
| 2026-05-04 18:41 | 52.15615 | 1.37202 | 14035 ft | 357 kts | 294° |
| 2026-05-04 18:42 | 52.16401 | 1.33386 | 14031 ft | 356 kts | 278° |
| 2026-05-04 18:42 | 52.16376 | 1.29378 | 13922 ft | 356 kts | 259° |
| 2026-05-04 18:42 | 52.15840 | 1.25447 | 13751 ft | 355 kts | 257° |
| 2026-05-04 18:42 | 52.15258 | 1.21547 | 13565 ft | 354 kts | 256° |
| 2026-05-04 18:43 | 52.14676 | 1.17662 | 13374 ft | 353 kts | 257° |
| 2026-05-04 18:43 | 52.14290 | 1.15089 | 13250 ft | 353 kts | 257° |
| 2026-05-04 18:43 | 52.14160 | 1.14221 | 13212 ft | 353 kts | 257° |
| 2026-05-04 18:43 | 52.13728 | 1.10739 | 12997 ft | 346 kts | 258° |
| 2026-05-04 18:44 | 52.13518 | 1.09244 | 12919 ft | 346 kts | 257° |
| 2026-05-04 18:44 | 52.13331 | 1.07956 | 12853 ft | 344 kts | 257° |
| 2026-05-04 18:44 | 52.12729 | 1.03909 | 12671 ft | 349 kts | 257° |
| 2026-05-04 18:44 | 52.12159 | 1.00067 | 12482 ft | 349 kts | 256° |
| 2026-05-04 18:45 | 52.11583 | 0.96236 | 12304 ft | 348 kts | 256° |
| 2026-05-04 18:45 | 52.11009 | 0.92421 | 12122 ft | 348 kts | 256° |
| 2026-05-04 18:45 | 52.10434 | 0.88606 | 11946 ft | 347 kts | 256° |
| 2026-05-04 18:45 | 52.09862 | 0.84803 | 11778 ft | 346 kts | 256° |
| 2026-05-04 18:46 | 52.09327 | 0.81247 | 11693 ft | 346 kts | 256° |
| 2026-05-04 18:46 | 52.08755 | 0.77453 | 11598 ft | 345 kts | 256° |
| 2026-05-04 18:46 | 52.08183 | 0.73661 | 11492 ft | 345 kts | 256° |
| 2026-05-04 18:46 | 52.07611 | 0.69877 | 11394 ft | 345 kts | 256° |
| 2026-05-04 18:47 | 52.07039 | 0.66091 | 11303 ft | 344 kts | 256° |
| 2026-05-04 18:47 | 52.06468 | 0.62314 | 11170 ft | 344 kts | 256° |
| 2026-05-04 18:47 | 52.05905 | 0.58596 | 10995 ft | 343 kts | 256° |
| 2026-05-04 18:47 | 52.05335 | 0.54845 | 10827 ft | 342 kts | 256° |
| 2026-05-04 18:48 | 52.04762 | 0.51096 | 10656 ft | 341 kts | 256° |
| 2026-05-04 18:48 | 52.04192 | 0.47359 | 10474 ft | 339 kts | 256° |
| 2026-05-04 18:48 | 52.03634 | 0.43709 | 10313 ft | 326 kts | 256° |
| 2026-05-04 18:48 | 52.03095 | 0.40197 | 10138 ft | 314 kts | 256° |
| 2026-05-04 18:49 | 52.02575 | 0.36818 | 9973 ft | 303 kts | 256° |
| 2026-05-04 18:49 | 52.02070 | 0.33551 | 9794 ft | 293 kts | 256° |
| 2026-05-04 18:49 | 52.01580 | 0.30387 | 9608 ft | 284 kts | 256° |
| 2026-05-04 18:49 | 52.01101 | 0.27316 | 9423 ft | 279 kts | 256° |
| 2026-05-04 18:50 | 52.00624 | 0.24266 | 9238 ft | 278 kts | 256° |
| 2026-05-04 18:50 | 52.00149 | 0.21238 | 9054 ft | 277 kts | 256° |
| 2026-05-04 18:50 | 51.99688 | 0.18295 | 8875 ft | 276 kts | 256° |
| 2026-05-04 18:50 | 51.99418 | 0.16576 | 8772 ft | 275 kts | 256° |
| 2026-05-04 18:51 | 51.98947 | 0.13575 | 8589 ft | 274 kts | 256° |
| 2026-05-04 18:51 | 51.98476 | 0.10586 | 8414 ft | 273 kts | 256° |
| 2026-05-04 18:51 | 51.98027 | 0.07643 | 8235 ft | 272 kts | 259° |
| 2026-05-04 18:51 | 51.97692 | 0.04635 | 8094 ft | 271 kts | 261° |
| 2026-05-04 18:52 | 51.97387 | 0.01626 | 8019 ft | 270 kts | 261° |
| 2026-05-04 18:52 | 51.97083 | -0.01381 | 8031 ft | 271 kts | 261° |
| 2026-05-04 18:52 | 51.96779 | -0.04395 | 8032 ft | 271 kts | 261° |
| 2026-05-04 18:52 | 51.96473 | -0.07418 | 7856 ft | 270 kts | 261° |
| 2026-05-04 18:53 | 51.96170 | -0.10419 | 7623 ft | 269 kts | 261° |
| 2026-05-04 18:53 | 51.96048 | -0.11617 | 7534 ft | 268 kts | 261° |
| 2026-05-04 18:53 | 51.95847 | -0.13583 | 7378 ft | 266 kts | 261° |
| 2026-05-04 18:53 | 51.95545 | -0.16551 | 7153 ft | 267 kts | 261° |
| 2026-05-04 18:54 | 51.95256 | -0.19406 | 6917 ft | 265 kts | 261° |
| 2026-05-04 18:54 | 51.94957 | -0.22352 | 6670 ft | 264 kts | 261° |
| 2026-05-04 18:54 | 51.94676 | -0.25114 | 6484 ft | 263 kts | 261° |
| 2026-05-04 18:54 | 51.94379 | -0.28040 | 6299 ft | 263 kts | 261° |
| 2026-05-04 18:55 | 51.94081 | -0.30962 | 6116 ft | 262 kts | 261° |
| 2026-05-04 18:55 | 51.93831 | -0.33418 | 5957 ft | 262 kts | 261° |
| 2026-05-04 18:55 | 51.93524 | -0.36132 | 5689 ft | 259 kts | 261° |
| 2026-05-04 18:56 | 51.93238 | -0.38861 | 5527 ft | 261 kts | 261° |
| 2026-05-04 18:56 | 51.92942 | -0.41758 | 5348 ft | 261 kts | 261° |
| 2026-05-04 18:56 | 51.92648 | -0.44649 | 5163 ft | 260 kts | 261° |
| 2026-05-04 18:56 | 51.92353 | -0.47545 | 5047 ft | 260 kts | 261° |
| 2026-05-04 18:57 | 51.92059 | -0.50435 | 4846 ft | 260 kts | 261° |
| 2026-05-04 18:57 | 51.91589 | -0.53207 | 4637 ft | 259 kts | 242° |
| 2026-05-04 18:57 | 51.90574 | -0.55540 | 4419 ft | 245 kts | 232° |
| 2026-05-04 18:57 | 51.89519 | -0.57598 | 4217 ft | 224 kts | 231° |
| 2026-05-04 18:58 | 51.88542 | -0.59460 | 4062 ft | 210 kts | 231° |
| 2026-05-04 18:58 | 51.87480 | -0.60940 | 3730 ft | 204 kts | 205° |
| 2026-05-04 18:58 | 51.86111 | -0.61167 | 3398 ft | 199 kts | 166° |
| 2026-05-04 18:58 | 51.84987 | -0.60012 | 3067 ft | 192 kts | 124° |
| 2026-05-04 18:59 | 51.84450 | -0.58100 | 2744 ft | 186 kts | 104° |
| 2026-05-04 18:59 | 51.84230 | -0.56073 | 2408 ft | 180 kts | 87° |
| 2026-05-04 18:59 | 51.84466 | -0.54115 | 2125 ft | 177 kts | 70° |
| 2026-05-04 18:59 | 51.84782 | -0.52289 | 2034 ft | 154 kts | 72° |
| 2026-05-04 19:00 | 51.85058 | -0.50688 | 1991 ft | 144 kts | 70° |
| 2026-05-04 19:00 | 51.85326 | -0.49145 | 1888 ft | 140 kts | 71° |
| 2026-05-04 19:00 | 51.85587 | -0.47647 | 1743 ft | 137 kts | 71° |
| 2026-05-04 19:00 | 51.85845 | -0.46171 | 1564 ft | 137 kts | 71° |
| 2026-05-04 19:01 | 51.86105 | -0.44676 | 1377 ft | 137 kts | 71° |
| 2026-05-04 19:01 | 51.86365 | -0.43182 | 1185 ft | 138 kts | 72° |
| 2026-05-04 19:01 | 51.86572 | -0.41993 | 1028 ft | 138 kts | 70° |
| 2026-05-04 19:01 | 51.86835 | -0.40490 | 845 ft | 140 kts | 71° |
| 2026-05-04 19:02 | 51.87060 | -0.39179 | 673 ft | 141 kts | 72° |
| 2026-05-04 19:02 | 51.87250 | -0.38090 | 527 ft | 138 kts | 70° |
| 2026-05-04 19:02 | 51.87471 | -0.36797 | 524 ft | 89 kts | 74° |
| 2026-05-04 19:02 | 51.87591 | -0.36100 | 516 ft | 40 kts | 75° |
| 2026-05-04 19:03 | 51.87635 | -0.35923 | 516 ft | 13 kts | 34° |
| 2026-05-04 19:03 | 51.87721 | -0.35940 | 516 ft | 14 kts | 344° |
| 2026-05-04 19:03 | 51.87784 | -0.36048 | 518 ft | 14 kts | 278° |
| 2026-05-04 19:03 | 51.87763 | -0.36196 | 518 ft | 14 kts | 253° |
| 2026-05-04 19:04 | 51.87734 | -0.36361 | 518 ft | 16 kts | 253° |
| 2026-05-04 19:04 | 51.87704 | -0.36534 | 520 ft | 16 kts | 256° |
| 2026-05-04 19:04 | 51.87675 | -0.36708 | 522 ft | 16 kts | 253° |
| 2026-05-04 19:04 | 51.87668 | -0.36831 | 524 ft | 10 kts | 302° |
| 2026-05-04 19:05 | 51.87750 | -0.36891 | 517 ft | 16 kts | 341° |
| 2026-05-04 19:05 | 51.87877 | -0.36959 | 512 ft | 21 kts | 342° |
| 2026-05-04 19:05 | 51.87978 | -0.37016 | 512 ft | 10 kts | 331° |
| 2026-05-04 19:05 | 51.88028 | -0.37124 | 508 ft | 15 kts | 298° |
| 2026-05-04 19:06 | 51.88036 | -0.37249 | 508 ft | 6 kts | 252° |
| 2026-05-04 19:06 | 51.88013 | -0.37298 | 508 ft | 4 kts | 183° |
| 2026-05-04 19:06 | 51.87987 | -0.37275 | 508 ft | 5 kts | 159° |
| 2026-05-04 19:06 | 51.87969 | -0.37265 | 508 ft | 0 kts | 161° |